map of WKJ home
WKJ - Airport
Location
City:  Wakkanai, Hokkaido, Japan
Name:Wakkanai Airport
ICAO:RJCW
IATA:WKJ

Details
Type:Airport (Aerodrome, Airfield)
Use:Public/Civil
Latitude:4524'15"N (45.404167)
Longitude:14148'03"E (141.800833)
Datum:WGS 1984
Elevation:30 ft (9 m)
Variation:10.18W (WMM2015 magnetic declination)
-0.03 annual change
Runways:1
Longest:6560 × 150 ft (1999 × 45.5 m), paved

Time
Time Zone:UTC+9
Local Time:

Weather
METAR:RJCW 210900Z 28018KT 6000 -SHSN FEW010 SCT030 BKN040 M07/M13 Q1000

Related Locations
Nearby:
Farthest:PSY: 11444 mi / 18417 km
Stanley (Port Stanley) [Port Stanley], FK

Find:

   beyond  
but within

Other Information
Maps:
NOTAMs:
Links:
Sources:

  
  • flag of Japan
  • flag of Hokkaido
  

Sectional Chart

Flight Planning
at skyvector.com

Satellite Image

Google Maps Satellite view

 

Copyright © 2004-2019 Karl L. Swartz. All rights reserved.
The Great Circle Mapper name and logo are trademarks of the Great Circle Mapper.
All other trademarks mentioned herein belong to their respective owners.
Please see credits for attibutions and further copyright information.

  Follow gcmap on Facebook Follow gcmap on Twitter Follow gcmap on Google+ GCmap on LinkedIn

hCard Microformat

Geo Microformat